Aérodrome :







RETROUVEZ-NOUS SUR...

 
LOGIN :

S'inscrire | Disclaimer

   EN    FR    IT 

 









Légende :    VFR   VFR Marginal   IFR   IFR Intensif   IFR Très Intensif
Visi : 
Plafond : 
>= 8 km
>= 3000ft
5 à 8 km
1000 à 3000 ft
1500m à 5 km
500 à 1000 ft
800 à 1500m
200 à 500 ft
< 800m
< 200 ft
Symboles :   Orages  Brouillard  Fortes neiges  Fortes précipitations  Vent > 20 kt






- Altitude de l'aérodrome : 235 ft
- Code IATA : CCS


SVMI - Simon Bolivar

DERNIER METAR :
  • 211900Z 090047KT 9999 SCT016 30/23 Q1012

METARs EXPIRÉS :
  • 211800Z 09003KT 9999 SCT016 30/22 Q1012
  • 211700Z 09007KT 9999 SCT016 26/23 Q1012

TAF TAF SVMI
Valide du 21 à 12h jusqu'au 22 à 12h UTC


211600Z 2112/2212 07006KT 9999 FEW016 TX31/18Z TN25/08Z
BECMG 2112/2116 05006KT 9000 DZ SCT016 SCT090



MET'MAP, la Météo Aéronautique d'un coup d'oeil ! - Copyright ORBIFLY Décembre 2007 - Disclaimer

ORBIFLY MET'MAP TEAM :

Programmation & Développement : Alexandra Zaïnal
Sur une idée originale de : Baudouin d'Aumeries
Assistance à la programmation : Marc-Olivier Méhu
Soutien technique & logistique : Manuel Goepfert

Contact : metmap@orbifly.com




SOURCES & CREDITS :

   NOAA